GABS/BKO METAR and TAF weather

Enter ICAO airport designator
Station Type Date Time Source
GABS METAR 2019/08/19 01:00 UTC NOAA

GABS 190100Z 00000KT 9999 FEW020 23/22 Q1013 NOSIG


Station Type Date Time Source
GABS Decoded METAR 2019/08/19 01:00 UTC NOAA

Station name not available
Aug 18, 2019 - 09:00 PM EDT / 2019.08.19 0100 UTC
Wind: Calm:0
Visibility: greater than 7 mile(s):0
Sky conditions: mostly clear
Temperature: 73 F (23 C)
Dew Point: 71 F (22 C)
Relative Humidity: 94%
Pressure (altimeter): 29.91 in. Hg (1013 hPa)
ob: GABS 190100Z 00000KT 9999 FEW020 23/22 Q1013 NOSIG
cycle: 1

Station Type Date Time Source
GABS TAF 2019/08/19 00:00 UTC NOAA

TAF GABS 182320Z 1900/2006 23006KT 9999 FEW020 PROB40
TEMPO 1903/1908 1500 BR SCT010 FEW020
TEMPO 1908/1915 4000 TS SHRA SCT020 FEW026CB PROB40
TEMPO 1915/1922 VRB20G35KT 3000 SQ TSRA BKN020 SCT026CB

Example: see airport list